Locust, Iowa
Current Conditions -  °F | °C
As of 8:55 AM on Sunday 23 Nov 2014 (Local Time) from KDEH Reporting Station
Haze Haze  
Wind Chill: 50°   Ceiling: 400
Heat Index: 50°   Visibility: 2.5mi
Dew Point: 50°   Wind: 9mph
Humidity: 100%   Direction: 200°SSW
Pressure: 29.53"   Gusts: 15mph
Location:  43.3626°N, 91.8164°W
Report Text: KDEH 231455Z AUTO 20008G13KT 2 1/2SM BR OVC004 10/10 A2953 RMK AO2
Loading
Personal Weather Stations






























Interactive Weather Map New forecast layout! Learn more

10-Day Weather Forecast

Advertisements
Track Severe Weather on mobile